createdAt,value
2023-04-20T00:01:23.978Z,75.90
2023-04-20T00:03:51.773Z,76.30
2023-04-20T00:06:18.703Z,75.90
2023-04-20T00:08:45.402Z,76.00
2023-04-20T00:11:12.320Z,75.80
2023-04-20T00:13:39.507Z,76.20
2023-04-20T00:16:06.406Z,76.10
2023-04-20T00:18:33.091Z,75.80
2023-04-20T00:20:59.764Z,75.70
2023-04-20T00:23:26.397Z,75.60
2023-04-20T00:25:54.906Z,75.80
2023-04-20T00:28:21.559Z,76.10
2023-04-20T00:30:48.375Z,76.20
2023-04-20T00:33:15.097Z,75.60
2023-04-20T00:35:42.242Z,75.50
2023-04-20T00:38:08.890Z,76.50
2023-04-20T00:40:35.614Z,76.40
2023-04-20T00:43:14.361Z,76.80
2023-04-20T00:45:41.388Z,76.80
2023-04-20T00:48:09.975Z,76.80
2023-04-20T00:50:38.091Z,77.10
2023-04-20T00:53:08.242Z,77.50
2023-04-20T00:55:37.698Z,77.70
2023-04-20T00:58:04.893Z,78.10
2023-04-20T01:00:33.753Z,78.50
2023-04-20T01:03:00.483Z,78.70
2023-04-20T01:05:27.317Z,79.10
2023-04-20T01:07:55.315Z,79.30
2023-04-20T01:10:21.950Z,79.50
2023-04-20T01:12:48.605Z,79.40
2023-04-20T01:15:15.649Z,79.70
2023-04-20T01:17:43.645Z,79.50
2023-04-20T01:20:12.683Z,79.80
2023-04-20T01:22:47.702Z,80.10
2023-04-20T01:25:14.876Z,80.60
2023-04-20T01:27:41.742Z,80.90
2023-04-20T01:30:08.981Z,81.10
2023-04-20T01:32:37.999Z,81.20
2023-04-20T01:35:05.623Z,81.60
2023-04-20T01:37:32.999Z,82.00
2023-04-20T01:40:03.775Z,81.70
2023-04-20T01:42:30.993Z,81.60
2023-04-20T01:44:58.024Z,81.90
2023-04-20T01:47:25.871Z,81.90
2023-04-20T01:49:52.594Z,82.40
2023-04-20T01:52:19.227Z,82.70
2023-04-20T01:54:48.473Z,83.00
2023-04-20T01:57:15.196Z,83.30
2023-04-20T01:59:41.880Z,83.40
2023-04-20T02:02:08.570Z,83.50
2023-04-20T02:04:35.416Z,83.40
2023-04-20T02:07:02.558Z,82.70
2023-04-20T02:09:29.366Z,82.80
2023-04-20T02:11:56.761Z,82.70
2023-04-20T02:14:23.394Z,83.40
2023-04-20T02:16:50.299Z,83.60
2023-04-20T02:19:17.193Z,83.50
2023-04-20T02:21:44.050Z,84.70
2023-04-20T02:24:10.888Z,84.90
2023-04-20T02:26:37.517Z,84.20
2023-04-20T02:29:04.180Z,84.60
2023-04-20T02:31:34.275Z,84.60
2023-04-20T02:34:01.183Z,84.70
2023-04-20T02:36:28.165Z,84.90
2023-04-20T02:38:54.803Z,85.00
2023-04-20T02:41:21.835Z,85.60
2023-04-20T02:43:49.333Z,85.60
2023-04-20T02:46:18.225Z,85.80
2023-04-20T02:48:45.140Z,85.90
2023-04-20T02:51:12.355Z,85.80
2023-04-20T02:53:43.259Z,86.30
2023-04-20T02:56:26.298Z,86.30
2023-04-20T02:58:55.560Z,86.20
2023-04-20T03:01:33.904Z,86.10
2023-04-20T03:04:08.242Z,86.20
2023-04-20T03:06:40.382Z,86.40
2023-04-20T03:09:09.955Z,86.80
2023-04-20T03:11:53.594Z,87.10
2023-04-20T03:14:36.429Z,86.90
2023-04-20T03:17:03.160Z,86.90
2023-04-20T03:19:29.865Z,87.30
2023-04-20T03:21:56.569Z,87.40
2023-04-20T03:24:23.985Z,87.20
2023-04-20T03:26:51.588Z,87.00
2023-04-20T03:29:24.673Z,86.60
2023-04-20T03:31:51.839Z,86.60
2023-04-20T03:34:18.857Z,87.10
2023-04-20T03:36:45.669Z,86.90
2023-04-20T03:39:12.307Z,86.90
2023-04-20T03:41:38.976Z,87.20
2023-04-20T03:44:06.918Z,87.10
2023-04-20T03:46:33.882Z,87.00
2023-04-20T03:49:00.557Z,86.70
2023-04-20T03:51:27.441Z,86.00
2023-04-20T03:53:54.078Z,85.60
2023-04-20T03:56:21.525Z,85.40
2023-04-20T03:58:48.965Z,84.80
2023-04-20T04:01:19.348Z,84.90
2023-04-20T04:03:48.528Z,85.10
2023-04-20T04:06:15.535Z,85.40
2023-04-20T04:08:42.217Z,85.40
2023-04-20T04:11:09.465Z,85.80
2023-04-20T04:13:36.270Z,85.60
2023-04-20T04:16:06.204Z,85.80
2023-04-20T04:18:32.875Z,86.10
2023-04-20T04:21:04.557Z,85.90
2023-04-20T04:23:31.360Z,86.00
2023-04-20T04:26:11.977Z,86.50
2023-04-20T04:28:42.498Z,86.30
2023-04-20T04:31:18.224Z,86.60
2023-04-20T04:33:46.291Z,86.50
2023-04-20T04:36:21.442Z,86.80
2023-04-20T04:38:48.963Z,87.10
2023-04-20T04:41:16.103Z,86.90
2023-04-20T04:43:45.567Z,87.20
2023-04-20T04:46:33.670Z,87.50
2023-04-20T04:49:04.265Z,87.50
2023-04-20T04:51:31.631Z,87.20
2023-04-20T04:53:58.291Z,87.80
2023-04-20T04:56:25.670Z,88.00
2023-04-20T04:58:52.388Z,88.00
2023-04-20T05:01:19.148Z,88.00
2023-04-20T05:03:46.357Z,88.30
2023-04-20T05:06:13.178Z,88.70
2023-04-20T05:08:40.165Z,88.90
2023-04-20T05:11:07.157Z,89.00
2023-04-20T05:13:33.787Z,90.00
2023-04-20T05:16:00.499Z,90.80
2023-04-20T05:18:27.174Z,91.00
2023-04-20T05:20:54.301Z,91.20
2023-04-20T05:23:21.316Z,91.50
2023-04-20T05:25:47.993Z,92.00
2023-04-20T05:28:14.669Z,92.40
2023-04-20T05:30:41.352Z,93.10
2023-04-20T05:33:08.449Z,93.70
2023-04-20T05:35:36.361Z,94.30
2023-04-20T05:38:06.121Z,94.60
2023-04-20T05:40:34.972Z,95.60
2023-04-20T05:43:01.693Z,96.40
2023-04-20T05:45:28.445Z,97.20
2023-04-20T05:47:56.567Z,97.50
2023-04-20T05:50:24.555Z,98.20
2023-04-20T05:52:52.220Z,98.40
2023-04-20T05:55:22.067Z,98.50
2023-04-20T05:57:51.648Z,98.80
2023-04-20T06:00:18.738Z,99.10
2023-04-20T06:02:45.680Z,99.00
2023-04-20T06:05:13.219Z,99.00
2023-04-20T06:07:40.366Z,98.80
2023-04-20T06:10:10.168Z,99.10
2023-04-20T06:12:37.135Z,99.40
2023-04-20T06:15:06.617Z,99.90
2023-04-20T06:17:36.075Z,99.90
2023-04-20T06:20:03.851Z,99.90
2023-04-20T06:22:30.560Z,99.90
2023-04-20T06:24:58.979Z,99.90
2023-04-20T06:27:25.928Z,99.90
2023-04-20T06:29:53.215Z,99.90
2023-04-20T06:32:20.121Z,99.90
2023-04-20T06:34:47.577Z,99.90
2023-04-20T06:37:14.469Z,99.90
2023-04-20T06:39:41.177Z,99.90
2023-04-20T06:42:08.533Z,99.90
2023-04-20T06:44:35.328Z,99.90
2023-04-20T06:47:02.104Z,99.90
2023-04-20T06:49:28.800Z,99.90
2023-04-20T06:51:56.096Z,99.90
2023-04-20T06:54:22.869Z,99.90
2023-04-20T06:56:50.449Z,99.90
2023-04-20T06:59:18.754Z,99.90
2023-04-20T07:01:45.724Z,99.90
2023-04-20T07:04:12.614Z,99.90
2023-04-20T07:06:39.406Z,99.90
2023-04-20T07:09:06.070Z,99.90
2023-04-20T07:11:32.790Z,99.90
2023-04-20T07:13:59.746Z,99.90
2023-04-20T07:16:26.503Z,99.90
2023-04-20T07:18:53.194Z,99.90
2023-04-20T07:21:19.842Z,99.90
2023-04-20T07:23:48.170Z,99.90
2023-04-20T07:26:15.022Z,99.90
2023-04-20T07:28:42.414Z,99.90
2023-04-20T07:31:09.068Z,99.90
2023-04-20T07:33:35.882Z,99.90
2023-04-20T07:36:02.973Z,99.90
2023-04-20T07:38:29.600Z,99.90
2023-04-20T07:40:56.263Z,99.90
2023-04-20T07:43:23.587Z,99.90
2023-04-20T07:45:50.901Z,99.90
2023-04-20T07:48:17.570Z,99.90
2023-04-20T07:50:45.580Z,99.90
2023-04-20T07:53:12.706Z,99.90
2023-04-20T07:55:39.376Z,99.90
2023-04-20T07:58:06.019Z,99.90
2023-04-20T08:00:32.678Z,99.90
2023-04-20T08:02:59.554Z,99.90
2023-04-20T08:05:27.187Z,99.90
2023-04-20T08:07:54.148Z,99.90
2023-04-20T08:10:21.213Z,99.90
2023-04-20T08:12:49.761Z,99.90
2023-04-20T08:15:17.745Z,99.90
2023-04-20T08:17:44.394Z,99.90
2023-04-20T08:20:11.245Z,99.90
2023-04-20T08:22:38.851Z,99.90
2023-04-20T08:25:05.889Z,99.90
2023-04-20T08:27:32.636Z,99.90
2023-04-20T08:29:59.327Z,99.90
2023-04-20T08:32:26.487Z,99.80
2023-04-20T08:34:54.029Z,99.90
2023-04-20T08:37:21.017Z,99.40
2023-04-20T08:39:47.738Z,99.50
2023-04-20T08:42:15.819Z,98.90
2023-04-20T08:44:42.865Z,98.20
2023-04-20T08:47:11.879Z,98.30
2023-04-20T08:49:39.638Z,98.30
2023-04-20T08:52:10.667Z,98.40
2023-04-20T08:54:55.208Z,98.40
2023-04-20T08:57:23.055Z,99.00
2023-04-20T08:59:49.721Z,98.40
2023-04-20T09:02:16.462Z,96.10
2023-04-20T09:04:43.411Z,97.00
2023-04-20T09:07:20.890Z,97.30
2023-04-20T09:09:58.321Z,97.50
2023-04-20T09:12:25.640Z,98.80
2023-04-20T09:14:52.738Z,98.80
2023-04-20T09:17:36.041Z,99.90
2023-04-20T09:20:05.169Z,98.90
2023-04-20T09:22:36.712Z,97.50
2023-04-20T09:25:16.594Z,96.70
2023-04-20T09:27:43.278Z,96.90
2023-04-20T09:30:11.469Z,96.80
2023-04-20T09:32:38.138Z,97.50
2023-04-20T09:35:06.694Z,97.70
2023-04-20T09:37:33.328Z,97.00
2023-04-20T09:40:01.195Z,97.70
2023-04-20T09:42:28.799Z,99.30
2023-04-20T09:44:57.565Z,97.70
2023-04-20T09:47:26.585Z,98.30
2023-04-20T09:49:54.270Z,97.60
2023-04-20T09:52:21.395Z,96.30
2023-04-20T09:54:48.701Z,96.80
2023-04-20T09:57:15.598Z,94.20
2023-04-20T09:59:43.874Z,94.50
2023-04-20T10:02:13.078Z,93.50
2023-04-20T10:04:56.675Z,93.10
2023-04-20T10:07:28.409Z,93.50
2023-04-20T10:10:08.445Z,91.20
2023-04-20T10:12:50.037Z,92.00
2023-04-20T10:15:17.231Z,91.50
2023-04-20T10:17:44.601Z,89.20
2023-04-20T10:20:23.371Z,90.00
2023-04-20T10:22:52.383Z,88.90
2023-04-20T10:25:28.392Z,89.80
2023-04-20T10:27:59.864Z,89.30
2023-04-20T10:30:28.243Z,88.00
2023-04-20T10:33:05.560Z,88.30
2023-04-20T10:35:45.914Z,89.20
2023-04-20T10:38:12.843Z,86.70
2023-04-20T10:40:39.716Z,87.20
2023-04-20T10:43:21.891Z,87.00
2023-04-20T10:45:50.140Z,87.70
2023-04-20T10:48:18.242Z,88.60
2023-04-20T10:50:45.426Z,89.00
2023-04-20T10:53:22.807Z,87.50
2023-04-20T10:55:59.941Z,88.00
2023-04-20T10:58:26.708Z,88.60
2023-04-20T11:01:01.380Z,88.10
2023-04-20T11:03:32.700Z,86.50
2023-04-20T11:06:01.658Z,86.60
2023-04-20T11:08:41.700Z,87.40
2023-04-20T11:11:27.427Z,88.10
2023-04-20T11:14:11.203Z,89.00
2023-04-20T11:16:50.525Z,85.70
2023-04-20T11:19:44.665Z,86.60
2023-04-20T11:22:21.562Z,86.90
2023-04-20T11:24:48.221Z,87.60
2023-04-20T11:27:22.211Z,87.50
2023-04-20T11:29:58.113Z,87.00
2023-04-20T11:32:25.583Z,86.30
2023-04-20T11:35:07.095Z,86.40
2023-04-20T11:37:46.862Z,86.50
2023-04-20T11:40:14.965Z,86.40
2023-04-20T11:42:41.778Z,87.90
2023-04-20T11:45:08.859Z,86.00
2023-04-20T11:47:35.565Z,85.90
2023-04-20T11:50:02.710Z,86.20
2023-04-20T11:52:29.386Z,84.80
2023-04-20T11:54:56.331Z,84.50
2023-04-20T11:57:23.872Z,82.20
2023-04-20T11:59:50.666Z,82.50
2023-04-20T12:02:17.494Z,82.50
2023-04-20T12:04:44.374Z,81.40
2023-04-20T12:07:11.173Z,82.50
2023-04-20T12:09:38.404Z,82.70
2023-04-20T12:12:06.047Z,83.20
2023-04-20T12:14:35.964Z,83.30
2023-04-20T12:17:04.283Z,82.90
2023-04-20T12:19:31.734Z,83.90
2023-04-20T12:21:58.479Z,83.10
2023-04-20T12:24:25.463Z,81.70
2023-04-20T12:26:52.365Z,80.30
2023-04-20T12:29:19.370Z,81.90
2023-04-20T12:31:46.479Z,80.90
2023-04-20T12:34:13.228Z,79.20
2023-04-20T12:36:40.528Z,80.10
2023-04-20T12:39:07.513Z,80.10
2023-04-20T12:41:34.881Z,80.40
2023-04-20T12:44:15.977Z,81.40
2023-04-20T12:46:42.779Z,81.40
2023-04-20T12:49:09.689Z,81.10
2023-04-20T12:51:36.387Z,81.90
2023-04-20T12:54:03.147Z,81.20
2023-04-20T12:56:30.020Z,80.80
2023-04-20T12:58:56.673Z,79.80
2023-04-20T13:01:23.993Z,79.20
2023-04-20T13:03:52.166Z,79.60
2023-04-20T13:06:19.120Z,79.50
2023-04-20T13:08:46.422Z,81.50
2023-04-20T13:11:15.404Z,81.30
2023-04-20T13:13:42.791Z,80.70
2023-04-20T13:16:09.710Z,80.30
2023-04-20T13:18:36.619Z,79.30
2023-04-20T13:21:03.488Z,79.90
2023-04-20T13:23:30.153Z,80.00
2023-04-20T13:25:59.086Z,80.10
2023-04-20T13:28:26.026Z,81.50
2023-04-20T13:30:55.653Z,80.70
2023-04-20T13:33:22.310Z,79.20
2023-04-20T13:35:49.071Z,79.70
2023-04-20T13:38:16.004Z,78.90
2023-04-20T13:40:44.398Z,79.40
2023-04-20T13:43:11.848Z,79.80
2023-04-20T13:45:38.999Z,77.90
2023-04-20T13:48:05.881Z,78.80
2023-04-20T13:50:32.596Z,78.60
2023-04-20T13:52:59.242Z,79.80
2023-04-20T13:55:27.216Z,79.50
2023-04-20T13:57:53.925Z,80.50
2023-04-20T14:00:20.724Z,79.70
2023-04-20T14:02:47.695Z,79.00
2023-04-20T14:05:14.535Z,77.80
2023-04-20T14:07:41.182Z,77.00
2023-04-20T14:10:08.636Z,75.40
2023-04-20T14:12:35.431Z,75.50
2023-04-20T14:15:02.334Z,75.30
2023-04-20T14:17:29.017Z,75.70
2023-04-20T14:19:56.006Z,76.20
2023-04-20T14:22:22.679Z,76.60
2023-04-20T14:24:49.431Z,77.90
2023-04-20T14:27:16.141Z,76.60
2023-04-20T14:29:42.900Z,76.90
2023-04-20T14:32:09.607Z,75.90
2023-04-20T14:34:36.280Z,76.20
2023-04-20T14:37:02.967Z,77.00
2023-04-20T14:39:29.628Z,77.40
2023-04-20T14:41:56.279Z,76.70
2023-04-20T14:44:22.979Z,76.70
2023-04-20T14:46:49.739Z,77.10
2023-04-20T14:49:16.676Z,75.80
2023-04-20T14:51:43.376Z,75.50
2023-04-20T14:54:10.047Z,74.50
2023-04-20T14:56:36.693Z,75.80
2023-04-20T14:59:03.470Z,75.80
2023-04-20T15:01:30.449Z,76.50
2023-04-20T15:03:57.373Z,76.20
2023-04-20T15:06:24.248Z,76.20
2023-04-20T15:08:54.463Z,75.90
2023-04-20T15:11:21.162Z,75.20
2023-04-20T15:13:49.382Z,75.70
2023-04-20T15:16:16.134Z,75.40
2023-04-20T15:18:43.197Z,75.30
2023-04-20T15:21:10.688Z,75.00
2023-04-20T15:23:37.425Z,75.70
2023-04-20T15:26:04.288Z,75.40
2023-04-20T15:28:30.923Z,75.40
2023-04-20T15:30:57.647Z,74.80
2023-04-20T15:33:24.939Z,73.70
2023-04-20T15:35:51.624Z,73.60
2023-04-20T15:38:18.927Z,72.70
2023-04-20T15:40:46.633Z,72.80
2023-04-20T15:43:13.293Z,73.10
2023-04-20T15:45:40.807Z,72.60
2023-04-20T15:48:08.947Z,71.30
2023-04-20T15:50:36.068Z,71.10
2023-04-20T15:53:03.046Z,70.90
2023-04-20T15:55:34.254Z,69.90
2023-04-20T15:58:01.157Z,70.20
2023-04-20T16:00:27.859Z,71.90
2023-04-20T16:02:55.011Z,72.00
2023-04-20T16:05:22.794Z,72.30
2023-04-20T16:07:50.164Z,71.70
2023-04-20T16:10:16.955Z,71.50
2023-04-20T16:12:43.630Z,71.50
2023-04-20T16:15:10.425Z,71.90
2023-04-20T16:17:37.172Z,72.30
2023-04-20T16:20:05.549Z,72.10
2023-04-20T16:22:32.216Z,73.10
2023-04-20T16:24:58.928Z,73.00
2023-04-20T16:27:27.420Z,72.80
2023-04-20T16:29:54.142Z,73.40
2023-04-20T16:32:21.173Z,73.40
2023-04-20T16:34:48.294Z,73.50
2023-04-20T16:37:15.014Z,73.50
2023-04-20T16:39:42.363Z,73.80
2023-04-20T16:42:09.148Z,73.70
2023-04-20T16:44:35.805Z,73.50
2023-04-20T16:47:02.604Z,73.50
2023-04-20T16:49:29.445Z,73.70
2023-04-20T16:51:57.508Z,73.80
2023-04-20T16:54:24.844Z,73.80
2023-04-20T16:56:52.350Z,75.10
2023-04-20T16:59:19.114Z,76.70
2023-04-20T17:01:45.878Z,78.20
2023-04-20T17:04:13.055Z,79.00
2023-04-20T17:06:39.750Z,79.80
2023-04-20T17:09:06.722Z,80.20
2023-04-20T17:11:37.995Z,80.10
2023-04-20T17:14:04.722Z,81.10
2023-04-20T17:16:31.463Z,84.30
2023-04-20T17:18:58.805Z,87.10
2023-04-20T17:21:27.577Z,89.40
2023-04-20T17:23:54.863Z,90.30
2023-04-20T17:26:21.746Z,91.70
2023-04-20T17:28:49.467Z,93.50
2023-04-20T17:31:16.714Z,94.00
2023-04-20T17:33:44.825Z,96.00
2023-04-20T17:36:11.550Z,96.00
2023-04-20T17:38:38.629Z,95.80
2023-04-20T17:41:05.416Z,97.00
2023-04-20T17:43:32.133Z,97.30
2023-04-20T17:45:58.961Z,97.80
2023-04-20T17:48:25.813Z,98.70
2023-04-20T17:50:52.613Z,98.40
2023-04-20T17:53:19.583Z,97.70
2023-04-20T17:55:46.281Z,98.20
2023-04-20T17:58:13.066Z,98.60
2023-04-20T18:00:40.395Z,98.50
2023-04-20T18:03:07.125Z,98.30
2023-04-20T18:05:33.987Z,99.00
2023-04-20T18:08:00.806Z,99.00
2023-04-20T18:10:28.037Z,98.70
2023-04-20T18:12:55.378Z,98.80
2023-04-20T18:15:22.074Z,98.90
2023-04-20T18:17:49.409Z,98.90
2023-04-20T18:20:16.525Z,98.10
2023-04-20T18:22:43.519Z,97.80
2023-04-20T18:25:10.396Z,98.10
2023-04-20T18:27:37.636Z,99.10
2023-04-20T18:30:04.891Z,99.30
2023-04-20T18:32:32.878Z,99.70
2023-04-20T18:35:00.195Z,99.20
2023-04-20T18:37:27.378Z,99.40
2023-04-20T18:39:54.706Z,99.40
2023-04-20T18:42:21.438Z,99.00
2023-04-20T18:44:50.915Z,98.50
2023-04-20T18:47:18.840Z,98.50
2023-04-20T18:49:45.526Z,99.10
2023-04-20T18:52:13.605Z,99.30
2023-04-20T18:54:40.579Z,99.30
2023-04-20T18:57:07.701Z,99.10
2023-04-20T18:59:34.433Z,99.70
2023-04-20T19:02:01.274Z,99.80
2023-04-20T19:04:29.601Z,99.80
2023-04-20T19:06:56.329Z,99.60
2023-04-20T19:09:23.009Z,99.60
2023-04-20T19:11:50.771Z,99.30
2023-04-20T19:14:19.148Z,99.10
2023-04-20T19:16:45.999Z,99.60
2023-04-20T19:19:12.767Z,99.90
2023-04-20T19:21:39.742Z,99.90
2023-04-20T19:24:06.701Z,99.70
2023-04-20T19:26:33.331Z,99.50
2023-04-20T19:29:00.278Z,99.50
2023-04-20T19:31:31.913Z,99.50
2023-04-20T19:33:58.638Z,99.50
2023-04-20T19:36:25.628Z,99.60
2023-04-20T19:38:52.518Z,99.90
2023-04-20T19:41:19.277Z,99.90
2023-04-20T19:43:45.906Z,99.90
2023-04-20T19:46:15.172Z,99.90
2023-04-20T19:48:43.548Z,99.90
2023-04-20T19:51:11.533Z,99.90
2023-04-20T19:53:38.605Z,99.90
2023-04-20T19:56:06.510Z,99.90
2023-04-20T19:58:33.467Z,99.90
2023-04-20T20:01:00.273Z,99.90
2023-04-20T20:03:27.576Z,99.90
2023-04-20T20:05:54.378Z,99.90
2023-04-20T20:08:21.272Z,99.90
2023-04-20T20:10:47.994Z,99.90
2023-04-20T20:13:14.879Z,99.90
2023-04-20T20:15:41.784Z,99.90
2023-04-20T20:18:10.364Z,99.90
2023-04-20T20:20:37.739Z,99.90
2023-04-20T20:23:04.396Z,99.90
2023-04-20T20:25:33.358Z,99.90
2023-04-20T20:28:01.848Z,99.90
2023-04-20T20:30:29.028Z,99.90
2023-04-20T20:32:58.657Z,99.90
2023-04-20T20:35:31.466Z,99.90
2023-04-20T20:37:59.863Z,99.90
2023-04-20T20:40:26.580Z,99.90
2023-04-20T20:42:54.220Z,99.90
2023-04-20T20:45:21.763Z,99.90
2023-04-20T20:47:48.579Z,99.90
2023-04-20T20:50:16.531Z,99.90
2023-04-20T20:52:43.623Z,99.90
2023-04-20T20:55:11.271Z,99.90
2023-04-20T20:57:38.150Z,99.90
2023-04-20T21:00:09.888Z,99.90
2023-04-20T21:02:37.205Z,99.90
2023-04-20T21:05:05.202Z,99.90
2023-04-20T21:07:31.916Z,99.90
2023-04-20T21:09:58.571Z,99.90
2023-04-20T21:12:25.319Z,99.90
2023-04-20T21:14:52.198Z,99.90
2023-04-20T21:17:19.396Z,99.90
2023-04-20T21:19:46.548Z,99.90
2023-04-20T21:22:13.247Z,99.90
2023-04-20T21:24:40.476Z,99.90
2023-04-20T21:27:07.239Z,99.90
2023-04-20T21:29:33.928Z,99.90
2023-04-20T21:32:00.630Z,99.90
2023-04-20T21:34:27.692Z,99.90
2023-04-20T21:36:54.555Z,99.90
2023-04-20T21:39:21.359Z,99.90
2023-04-20T21:41:48.076Z,99.90
2023-04-20T21:44:14.763Z,99.90
2023-04-20T21:46:41.430Z,99.90
2023-04-20T21:49:08.272Z,99.90
2023-04-20T21:51:34.896Z,99.90
2023-04-20T21:54:01.592Z,99.90
2023-04-20T21:56:28.296Z,99.90
2023-04-20T21:58:55.165Z,99.90
2023-04-20T22:01:21.818Z,99.90
2023-04-20T22:03:48.677Z,99.90
2023-04-20T22:06:15.532Z,99.90
2023-04-20T22:08:42.499Z,99.90
2023-04-20T22:11:09.513Z,99.90
2023-04-20T22:13:36.795Z,99.90
2023-04-20T22:16:03.904Z,99.90
2023-04-20T22:18:30.736Z,99.90
2023-04-20T22:20:57.576Z,99.90
2023-04-20T22:23:24.309Z,99.90
2023-04-20T22:25:50.983Z,99.90
2023-04-20T22:28:18.128Z,99.90
2023-04-20T22:30:44.799Z,99.90
2023-04-20T22:33:11.490Z,99.90
2023-04-20T22:35:38.173Z,99.90
2023-04-20T22:38:04.960Z,99.90
2023-04-20T22:40:31.664Z,99.90
2023-04-20T22:42:58.311Z,99.90
2023-04-20T22:45:25.118Z,99.90
2023-04-20T22:47:51.813Z,99.90
2023-04-20T22:50:18.584Z,99.90
2023-04-20T22:52:45.978Z,99.90
2023-04-20T22:55:13.930Z,99.90
2023-04-20T22:57:40.588Z,99.90
2023-04-20T23:00:10.482Z,99.90
2023-04-20T23:02:37.695Z,99.90
2023-04-20T23:05:05.627Z,99.90
2023-04-20T23:07:33.306Z,99.90
2023-04-20T23:10:00.375Z,99.90
2023-04-20T23:12:29.249Z,99.90
2023-04-20T23:14:56.489Z,99.90
2023-04-20T23:17:23.366Z,99.90
2023-04-20T23:19:50.921Z,99.90
2023-04-20T23:22:17.991Z,99.90
2023-04-20T23:24:44.775Z,99.90
2023-04-20T23:27:11.413Z,99.90
2023-04-20T23:29:38.101Z,99.90
2023-04-20T23:32:05.085Z,99.90
2023-04-20T23:34:31.812Z,99.90
2023-04-20T23:36:58.645Z,99.90
2023-04-20T23:39:25.390Z,99.90
2023-04-20T23:41:52.068Z,99.90
2023-04-20T23:44:18.837Z,99.90
2023-04-20T23:46:46.265Z,99.90
2023-04-20T23:49:12.961Z,99.90
2023-04-20T23:51:39.600Z,99.90
2023-04-20T23:54:06.255Z,99.90
2023-04-20T23:56:32.880Z,99.90
2023-04-20T23:58:59.591Z,99.90
